Time;durP1;ratioP1;P1;durP2;ratioP2;P2;SDS_P1;SDS_P2;PMS_P1;PMS_P2;Temp;Humidity;BMP_temperature;BMP_pressure;BME280_temperature;BME280_humidity;BME280_pressure;Samples;Min_cycle;Max_cycle;Signal;HPM_P1;HPM_P2
2021/08/14 00:00:46;;;;;;;9.20;5.93;;;;;;;22.11;57.77;101915.72;5072679;28;20179;-60
2021/08/14 00:03:11;;;;;;;9.30;5.60;;;;;;;22.17;57.60;101925.06;5072415;28;20573;-61
2021/08/14 00:05:37;;;;;;;6.93;5.63;;;;;;;22.18;57.98;101935.88;5072323;28;20226;-60
2021/08/14 00:08:03;;;;;;;7.67;5.30;;;;;;;22.18;58.05;101924.59;5074992;28;20641;-61
2021/08/14 00:10:28;;;;;;;9.10;6.20;;;;;;;21.98;57.92;101893.38;5092585;28;20676;-60
2021/08/14 00:12:54;;;;;;;12.40;6.47;;;;;;;22.29;57.95;101943.78;5091874;28;20189;-60
2021/08/14 00:15:19;;;;;;;7.10;6.20;;;;;;;22.09;57.90;101906.91;5092688;28;20213;-60
2021/08/14 00:17:45;;;;;;;9.90;6.00;;;;;;;22.22;58.04;101938.53;5091543;28;20190;-60
2021/08/14 00:20:11;;;;;;;10.07;6.17;;;;;;;22.20;58.05;101943.84;5087563;28;20241;-60
2021/08/14 00:22:37;;;;;;;9.77;5.80;;;;;;;22.06;57.81;101928.41;5087678;28;20475;-60
2021/08/14 00:25:03;;;;;;;9.00;5.80;;;;;;;22.15;58.12;101944.53;5092492;28;20432;-60
2021/08/14 00:27:28;;;;;;;6.63;5.40;;;;;;;21.68;57.84;101876.72;5078699;28;20183;-60
2021/08/14 00:29:54;;;;;;;6.67;5.87;;;;;;;22.04;58.13;101930.97;5090077;28;20667;-60
2021/08/14 00:32:19;;;;;;;8.07;5.97;;;;;;;22.08;58.01;101939.25;5076172;28;20711;-60
2021/08/14 00:34:45;;;;;;;6.60;5.87;;;;;;;22.01;58.40;101939.59;5091573;28;20187;-60
2021/08/14 00:37:11;;;;;;;8.27;5.83;;;;;;;21.82;58.52;101933.28;5076263;28;20230;-60
2021/08/14 00:39:37;;;;;;;12.07;6.47;;;;;;;21.81;58.52;101945.06;5078884;28;20641;-60
2021/08/14 00:42:03;;;;;;;9.90;6.37;;;;;;;21.84;58.61;101938.44;5092073;28;20178;-60
2021/08/14 00:44:29;;;;;;;13.17;6.37;;;;;;;21.80;58.69;101938.63;5084126;28;20735;-60
2021/08/14 00:46:55;;;;;;;10.60;6.07;;;;;;;21.73;58.71;101924.88;5074305;28;20180;-60
2021/08/14 00:49:20;;;;;;;8.83;6.00;;;;;;;21.82;58.87;101938.94;5083852;28;20232;-60
2021/08/14 00:51:46;;;;;;;12.10;6.50;;;;;;;21.64;58.68;101907.94;5091758;28;20197;-60
2021/08/14 00:54:11;;;;;;;9.73;6.70;;;;;;;21.82;58.63;101936.13;5090978;28;20210;-60
2021/08/14 00:56:37;;;;;;;8.20;6.30;;;;;;;21.78;58.92;101934.72;5091707;28;20187;-60
2021/08/14 00:59:06;;;;;;;6.93;5.63;;;;;;;21.71;58.96;101943.53;5090962;28;20183;-60
2021/08/14 01:01:32;;;;;;;8.70;6.03;;;;;;;21.55;58.93;101922.09;5090750;28;20181;-60
2021/08/14 01:03:58;;;;;;;11.93;6.50;;;;;;;21.65;58.87;101928.50;5091546;28;20237;-60
2021/08/14 01:06:25;;;;;;;10.60;6.30;;;;;;;21.60;58.89;101929.16;5086798;28;20291;-60
2021/08/14 01:08:52;;;;;;;8.00;6.20;;;;;;;21.58;59.23;101923.19;5071813;28;20271;-60
2021/08/14 01:11:18;;;;;;;10.77;6.23;;;;;;;21.59;59.36;101934.00;5083189;28;20188;-60
2021/08/14 01:13:45;;;;;;;10.37;5.87;;;;;;;21.62;59.13;101933.06;5071411;28;20175;-60
2021/08/14 01:16:10;;;;;;;11.93;6.60;;;;;;;21.63;59.30;101943.06;5082002;28;20247;-60
2021/08/14 01:18:44;;;;;;;9.07;6.30;;;;;;;21.65;59.26;101939.78;5091051;28;20179;-60
2021/08/14 01:21:14;;;;;;;10.00;6.00;;;;;;;21.64;59.39;101944.63;5090703;28;20200;-60
2021/08/14 01:23:41;;;;;;;13.47;6.63;;;;;;;21.60;59.33;101952.47;5091313;28;20556;-60
2021/08/14 01:26:12;;;;;;;10.20;6.13;;;;;;;21.49;58.63;101952.22;5072938;28;20285;-60
2021/08/14 01:28:39;;;;;;;8.07;5.83;;;;;;;21.47;58.76;101956.75;5085704;28;20177;-60
2021/08/14 01:31:07;;;;;;;8.47;6.03;;;;;;;21.51;58.60;101948.91;5091212;28;20265;-60
2021/08/14 01:33:35;;;;;;;10.27;6.13;;;;;;;21.51;59.19;101955.34;5089048;28;20694;-60
2021/08/14 01:36:02;;;;;;;8.77;6.33;;;;;;;21.49;59.35;101960.66;5091372;28;20181;-60
2021/08/14 01:38:27;;;;;;;8.53;6.23;;;;;;;21.48;59.31;101966.78;5082077;28;20182;-60
2021/08/14 01:40:53;;;;;;;13.37;7.00;;;;;;;21.50;59.18;101969.94;5088240;28;20251;-60
2021/08/14 01:43:20;;;;;;;10.13;6.80;;;;;;;21.43;59.21;101956.94;5078084;28;20657;-60
2021/08/14 01:45:49;;;;;;;10.20;6.13;;;;;;;21.34;59.00;101945.69;5088457;28;20183;-60
2021/08/14 01:48:15;;;;;;;8.93;6.27;;;;;;;21.47;59.35;101966.03;5090322;28;20192;-60
2021/08/14 01:50:41;;;;;;;11.43;6.07;;;;;;;20.85;59.20;101879.56;5091170;28;20268;-59
2021/08/14 01:53:06;;;;;;;6.57;5.90;;;;;;;21.43;59.45;101975.88;5090311;28;20273;-60
2021/08/14 01:55:32;;;;;;;7.40;5.70;;;;;;;21.36;59.65;101976.22;5090438;28;20704;-60
2021/08/14 01:57:57;;;;;;;7.63;6.10;;;;;;;21.38;59.57;101974.50;5080407;28;20245;-60
2021/08/14 02:00:23;;;;;;;9.33;6.57;;;;;;;21.37;59.49;101974.97;5090545;28;20234;-60
2021/08/14 02:02:48;;;;;;;9.40;6.37;;;;;;;21.35;59.48;101977.50;5091003;28;20203;-60
2021/08/14 02:05:15;;;;;;;8.60;6.00;;;;;;;21.33;59.75;101977.19;5070645;28;20187;-60
2021/08/14 02:07:40;;;;;;;9.00;6.20;;;;;;;21.20;59.62;101960.47;5070904;28;20701;-60
2021/08/14 02:10:07;;;;;;;11.47;6.93;;;;;;;21.27;60.19;101979.06;5072760;28;20309;-59
2021/08/14 02:12:32;;;;;;;10.73;7.03;;;;;;;21.26;60.01;101981.13;5070819;28;20563;-60
2021/08/14 02:14:58;;;;;;;10.13;6.70;;;;;;;21.25;59.93;101985.22;5071970;28;20188;-62
2021/08/14 02:17:23;;;;;;;10.70;6.63;;;;;;;21.23;59.94;101986.94;5090790;28;20661;-62
2021/08/14 02:19:49;;;;;;;9.97;6.60;;;;;;;21.07;59.83;101961.88;5089938;28;20945;-60
2021/08/14 02:22:14;;;;;;;7.37;6.30;;;;;;;21.18;59.56;101993.22;5078867;28;20452;-59
2021/08/14 02:24:39;;;;;;;7.17;6.47;;;;;;;21.13;59.63;101991.03;5070803;28;20208;-59
2021/08/14 02:27:05;;;;;;;9.70;6.73;;;;;;;21.12;59.62;102001.50;5070577;28;20178;-59
2021/08/14 02:29:33;;;;;;;8.83;6.50;;;;;;;20.95;59.73;101989.00;5087981;28;20215;-60
2021/08/14 02:31:59;;;;;;;9.10;6.47;;;;;;;21.07;59.76;102001.34;5091203;28;20196;-59
2021/08/14 02:34:25;;;;;;;8.90;6.80;;;;;;;21.01;59.85;101998.41;5087632;28;20185;-60
2021/08/14 02:36:50;;;;;;;9.73;6.27;;;;;;;20.99;59.94;101997.28;5093837;28;20197;-60
2021/08/14 02:39:16;;;;;;;12.47;6.83;;;;;;;21.01;59.87;102003.22;5090544;28;20464;-60
2021/08/14 02:41:41;;;;;;;9.33;6.53;;;;;;;20.98;59.96;101993.69;5073928;28;20186;-62
2021/08/14 02:44:08;;;;;;;9.47;6.50;;;;;;;20.90;59.59;101989.63;5076385;28;20238;-60
2021/08/14 02:46:33;;;;;;;9.30;6.83;;;;;;;20.97;59.82;101988.50;5076227;28;20650;-59
2021/08/14 02:48:59;;;;;;;10.17;6.47;;;;;;;20.94;59.71;101990.25;5075083;28;20186;-62
2021/08/14 02:51:24;;;;;;;10.30;6.70;;;;;;;20.78;60.33;102006.69;5087762;28;20194;-59
2021/08/14 02:53:50;;;;;;;8.90;6.73;;;;;;;20.62;60.18;101981.63;5094242;28;20183;-59
2021/08/14 02:56:15;;;;;;;8.93;6.97;;;;;;;20.37;60.91;101976.28;5088211;28;20184;-59
2021/08/14 02:58:41;;;;;;;10.67;6.83;;;;;;;20.10;60.53;101940.44;5089970;28;20564;-60
2021/08/14 03:01:06;;;;;;;11.53;6.67;;;;;;;20.27;61.40;102008.50;5073890;28;20266;-60
2021/08/14 03:03:32;;;;;;;10.57;6.80;;;;;;;20.17;61.24;101996.41;5075155;28;20216;-59
2021/08/14 03:05:57;;;;;;;10.53;6.93;;;;;;;20.34;61.18;102014.63;5093900;28;20673;-59
2021/08/14 03:08:23;;;;;;;9.43;7.00;;;;;;;20.08;62.15;102015.31;5092955;28;20181;-60
2021/08/14 03:10:48;;;;;;;11.00;7.57;;;;;;;20.10;61.79;101995.91;5076851;28;20215;-59
2021/08/14 03:13:14;;;;;;;10.83;7.60;;;;;;;20.14;61.91;102010.63;5081109;28;20175;-59
2021/08/14 03:15:40;;;;;;;13.03;7.53;;;;;;;20.12;61.83;102018.78;5086559;28;20212;-59
2021/08/14 03:18:06;;;;;;;12.43;7.57;;;;;;;20.07;62.09;102028.59;5083918;28;20188;-59
2021/08/14 03:20:32;;;;;;;19.50;8.97;;;;;;;19.70;62.40;102004.34;5093489;28;20181;-59
2021/08/14 03:22:58;;;;;;;19.93;7.87;;;;;;;19.91;62.66;102042.88;5079518;28;20208;-59
2021/08/14 03:25:24;;;;;;;13.03;8.17;;;;;;;19.81;62.51;102027.22;5086999;28;20271;-59
2021/08/14 03:27:49;;;;;;;12.17;7.53;;;;;;;19.58;62.92;101977.13;5084167;28;20659;-59
2021/08/14 03:30:16;;;;;;;9.57;7.40;;;;;;;19.97;62.76;102051.53;5073082;28;20651;-59
2021/08/14 03:32:42;;;;;;;11.37;7.70;;;;;;;19.75;63.12;102020.63;5072980;28;20263;-62
2021/08/14 03:35:08;;;;;;;12.37;8.00;;;;;;;19.97;63.07;102048.72;5091847;28;20684;-60
2021/08/14 03:37:33;;;;;;;11.60;8.50;;;;;;;19.96;63.27;102044.34;5093105;28;20173;-59
2021/08/14 03:39:59;;;;;;;12.10;7.63;;;;;;;19.49;63.30;101977.06;5087810;28;20187;-59
2021/08/14 03:42:24;;;;;;;13.77;8.37;;;;;;;19.96;63.03;102056.34;5072470;28;20181;-60
2021/08/14 03:44:50;;;;;;;9.80;8.07;;;;;;;19.95;63.13;102059.66;5077336;28;20274;-59
2021/08/14 03:47:15;;;;;;;13.40;7.80;;;;;;;20.05;62.93;102056.41;5072745;28;20689;-59
2021/08/14 03:49:41;;;;;;;16.80;7.70;;;;;;;19.78;62.50;102014.09;5083445;28;20181;-59
2021/08/14 03:52:06;;;;;;;12.13;7.33;;;;;;;19.55;62.07;101960.41;5093109;28;20545;-60
2021/08/14 03:54:32;;;;;;;16.37;7.90;;;;;;;20.27;62.12;102065.56;5078983;28;20181;-59
2021/08/14 03:56:57;;;;;;;14.10;7.97;;;;;;;20.27;61.96;102070.44;5072508;28;20209;-59
2021/08/14 03:59:23;;;;;;;12.80;7.60;;;;;;;20.23;62.45;102070.59;5088361;28;20177;-59
2021/08/14 04:01:48;;;;;;;14.73;7.60;;;;;;;20.33;62.00;102075.00;5092747;28;20664;-59
2021/08/14 04:04:14;;;;;;;12.77;7.43;;;;;;;20.29;62.11;102076.38;5091861;28;20551;-59
2021/08/14 04:06:39;;;;;;;15.00;7.13;;;;;;;20.36;62.18;102081.72;5091135;28;20706;-59
2021/08/14 04:09:05;;;;;;;11.93;7.40;;;;;;;20.44;61.94;102083.78;5074829;28;20174;-59
2021/08/14 04:11:30;;;;;;;15.70;8.00;;;;;;;20.52;61.62;102090.66;5092085;28;20659;-59
2021/08/14 04:13:55;;;;;;;13.37;7.70;;;;;;;20.40;61.23;102054.19;5092723;28;20200;-59
2021/08/14 04:16:21;;;;;;;15.27;7.50;;;;;;;20.27;61.10;102043.03;5079829;28;20185;-59
2021/08/14 04:18:46;;;;;;;15.07;7.43;;;;;;;20.68;61.16;102087.56;5072235;28;20300;-59
2021/08/14 04:21:12;;;;;;;15.10;7.87;;;;;;;20.84;60.81;102087.31;5084520;28;20188;-60
2021/08/14 04:23:37;;;;;;;14.90;6.97;;;;;;;20.91;60.69;102087.00;5092428;28;20204;-59
2021/08/14 04:26:03;;;;;;;17.43;8.40;;;;;;;20.91;60.53;102074.94;5092068;28;20229;-60
2021/08/14 04:28:29;;;;;;;19.53;8.13;;;;;;;21.07;60.26;102091.53;5078244;28;20695;-60
2021/08/14 04:30:54;;;;;;;18.00;7.23;;;;;;;21.14;60.11;102091.25;5070762;28;20193;-60
2021/08/14 04:33:20;;;;;;;12.23;6.97;;;;;;;21.00;59.98;102074.94;5086030;28;20343;-59
2021/08/14 04:35:45;;;;;;;16.20;7.67;;;;;;;21.08;60.16;102096.72;5073608;28;20190;-59
2021/08/14 04:38:11;;;;;;;11.37;7.40;;;;;;;21.15;60.09;102107.69;5072252;28;20563;-59
2021/08/14 04:40:36;;;;;;;10.93;7.40;;;;;;;21.17;59.99;102102.38;5092269;28;20550;-60
2021/08/14 04:43:02;;;;;;;14.77;7.80;;;;;;;21.23;59.98;102105.34;5091541;28;20305;-60
2021/08/14 04:45:27;;;;;;;12.93;8.23;;;;;;;20.94;59.59;102040.97;5086336;28;20187;-60
2021/08/14 04:47:53;;;;;;;17.43;7.80;;;;;;;21.44;59.20;102110.03;5071936;28;20720;-59
2021/08/14 04:50:18;;;;;;;14.40;7.93;;;;;;;21.52;58.92;102114.88;5070495;28;20561;-60
2021/08/14 04:52:44;;;;;;;11.07;7.87;;;;;;;21.40;58.59;102090.44;5086496;28;20239;-60
2021/08/14 04:55:10;;;;;;;15.07;8.30;;;;;;;21.39;58.77;102082.47;5091877;28;20183;-60
2021/08/14 04:57:35;;;;;;;13.77;8.73;;;;;;;21.66;58.88;102128.34;5090642;28;20232;-60
2021/08/14 05:00:01;;;;;;;17.13;8.63;;;;;;;21.39;58.43;102071.94;5091715;28;20686;-59
2021/08/14 05:02:27;;;;;;;12.63;8.73;;;;;;;21.85;58.50;102131.94;5076107;28;20195;-60
2021/08/14 05:04:52;;;;;;;16.80;9.23;;;;;;;21.83;58.69;102132.41;5087112;28;20270;-60
2021/08/14 05:07:18;;;;;;;14.27;8.20;;;;;;;21.92;58.83;102140.06;5090792;28;20179;-60
2021/08/14 05:09:43;;;;;;;14.67;9.43;;;;;;;22.00;58.54;102138.47;5080806;28;20186;-60
2021/08/14 05:12:09;;;;;;;16.40;9.50;;;;;;;22.01;58.96;102134.41;5082166;28;20222;-60
2021/08/14 05:14:35;;;;;;;12.67;9.40;;;;;;;21.70;59.81;102133.84;5074006;28;20186;-60
2021/08/14 05:17:01;;;;;;;14.77;9.33;;;;;;;21.61;60.60;102139.47;5073052;28;20270;-60
2021/08/14 05:19:26;;;;;;;12.83;9.30;;;;;;;21.53;61.83;102146.66;5076935;28;20190;-60
2021/08/14 05:21:52;;;;;;;12.57;8.43;;;;;;;21.55;61.26;102144.19;5091292;28;20700;-59
2021/08/14 05:24:17;;;;;;;11.57;8.03;;;;;;;21.62;60.87;102144.63;5090765;28;20256;-59
2021/08/14 05:26:43;;;;;;;14.13;8.87;;;;;;;21.72;60.22;102142.59;5091441;28;20660;-60
2021/08/14 05:29:09;;;;;;;12.03;8.03;;;;;;;21.78;59.68;102147.16;5090735;28;20175;-60
2021/08/14 05:31:35;;;;;;;12.77;7.73;;;;;;;21.76;60.24;102144.03;5091224;28;20179;-60
2021/08/14 05:34:05;;;;;;;12.40;7.67;;;;;;;21.88;58.79;102120.47;5071705;28;20184;-60
2021/08/14 05:36:32;;;;;;;12.63;7.97;;;;;;;22.20;58.72;102147.16;5070924;28;20175;-60
2021/08/14 05:38:57;;;;;;;15.50;8.60;;;;;;;22.19;59.36;102132.28;5088540;28;20193;-60
2021/08/14 05:41:23;;;;;;;13.50;8.10;;;;;;;22.41;58.52;102143.34;5090373;28;20171;-60
2021/08/14 05:43:48;;;;;;;9.23;7.43;;;;;;;22.46;58.34;102137.06;5090851;28;20287;-60
2021/08/14 05:46:14;;;;;;;11.50;7.63;;;;;;;22.45;57.71;102127.81;5082806;28;20328;-60
2021/08/14 05:48:39;;;;;;;12.93;7.90;;;;;;;22.67;57.12;102144.50;5090997;28;20231;-60
2021/08/14 05:51:05;;;;;;;10.90;7.57;;;;;;;22.76;56.99;102122.59;5084280;28;20616;-60
2021/08/14 05:53:31;;;;;;;12.17;7.57;;;;;;;23.01;56.26;102135.44;5070728;28;20179;-60
2021/08/14 05:55:57;;;;;;;11.83;7.57;;;;;;;23.13;55.08;102140.09;5073130;28;20201;-60
2021/08/14 05:58:22;;;;;;;13.07;7.60;;;;;;;23.13;54.74;102145.75;5090704;28;20182;-60
2021/08/14 06:00:48;;;;;;;12.77;7.70;;;;;;;22.82;54.77;102071.84;5090113;28;20186;-60
2021/08/14 06:03:13;;;;;;;17.53;7.57;;;;;;;23.52;54.34;102136.00;5089412;28;20207;-60
2021/08/14 06:05:39;;;;;;;13.53;8.00;;;;;;;23.40;53.28;102083.31;5092598;28;20655;-60
2021/08/14 06:08:04;;;;;;;11.47;7.83;;;;;;;23.83;53.61;102133.47;5094744;28;20191;-60
2021/08/14 06:10:30;;;;;;;14.37;7.50;;;;;;;23.96;51.88;102128.34;5093914;28;20187;-60
2021/08/14 06:12:56;;;;;;;13.20;7.40;;;;;;;23.76;49.78;102105.56;5094394;28;20555;-60
2021/08/14 06:15:21;;;;;;;15.87;6.97;;;;;;;23.85;50.98;102130.97;5078644;28;20713;-60
2021/08/14 06:17:47;;;;;;;10.50;6.80;;;;;;;24.17;50.10;102127.94;5094090;28;20637;-60
2021/08/14 06:20:12;;;;;;;10.67;7.10;;;;;;;24.24;49.15;102130.34;5089685;28;20191;-60
2021/08/14 06:22:40;;;;;;;11.83;6.23;;;;;;;24.29;49.31;102129.66;5088700;28;20725;-60
2021/08/14 06:25:07;;;;;;;11.53;6.73;;;;;;;24.52;48.88;102127.94;5094770;28;20729;-60
2021/08/14 06:27:32;;;;;;;10.73;6.83;;;;;;;24.75;48.14;102132.69;5086968;28;20187;-60
2021/08/14 06:29:57;;;;;;;10.97;7.10;;;;;;;24.53;47.66;102089.81;5073974;28;20679;-60
2021/08/14 06:32:23;;;;;;;16.73;7.03;;;;;;;24.79;47.65;102133.25;5079106;28;20179;-60
2021/08/14 06:34:48;;;;;;;9.90;6.77;;;;;;;24.69;47.37;102078.75;5090608;28;20183;-60
2021/08/14 06:37:14;;;;;;;13.33;7.50;;;;;;;25.19;46.97;102128.34;5079025;28;20206;-60
2021/08/14 06:39:39;;;;;;;9.23;6.43;;;;;;;25.37;46.70;102127.28;5080777;28;20688;-60
2021/08/14 06:42:05;;;;;;;10.17;6.40;;;;;;;25.46;46.75;102121.47;5076682;28;20565;-60
2021/08/14 06:44:33;;;;;;;10.93;6.53;;;;;;;25.69;46.58;102126.09;5074499;28;20223;-60
2021/08/14 06:46:58;;;;;;;10.20;6.80;;;;;;;25.85;46.27;102125.47;5091277;28;20187;-60
2021/08/14 06:49:24;;;;;;;11.03;6.90;;;;;;;25.97;46.05;102130.78;5090824;28;20251;-60
2021/08/14 06:51:49;;;;;;;9.60;6.73;;;;;;;26.04;46.20;102124.63;5082045;28;20291;-60
2021/08/14 06:54:15;;;;;;;12.03;6.57;;;;;;;25.96;46.77;102123.56;5091795;28;20236;-60
2021/08/14 06:56:40;;;;;;;10.00;6.83;;;;;;;25.88;46.54;102121.63;5085207;28;20180;-60
2021/08/14 06:59:06;;;;;;;13.27;6.83;;;;;;;25.88;46.39;102118.78;5091859;28;20186;-60
2021/08/14 07:01:31;;;;;;;11.63;6.53;;;;;;;26.11;46.00;102126.25;5093713;28;20687;-60
2021/08/14 07:03:57;;;;;;;12.37;6.80;;;;;;;26.29;45.36;102117.31;5091236;28;20211;-60
2021/08/14 07:06:24;;;;;;;10.77;7.00;;;;;;;26.30;45.86;102116.06;5093668;28;20589;-60
2021/08/14 07:08:50;;;;;;;13.47;7.07;;;;;;;26.21;46.65;102114.16;5088126;28;20668;-60
2021/08/14 07:11:19;;;;;;;10.20;6.73;;;;;;;26.31;46.23;102120.47;5073219;28;20637;-60
2021/08/14 07:13:45;;;;;;;10.23;6.83;;;;;;;26.45;45.43;102111.75;5073637;28;20262;-60
2021/08/14 07:16:10;;;;;;;11.07;7.10;;;;;;;26.62;45.49;102117.59;5083142;28;20323;-60
2021/08/14 07:18:36;;;;;;;10.40;7.23;;;;;;;26.45;44.96;102119.53;5073130;28;20175;-60
2021/08/14 07:21:01;;;;;;;12.33;6.60;;;;;;;26.44;45.03;102107.38;5080965;28;20206;-60
2021/08/14 07:23:27;;;;;;;10.17;7.03;;;;;;;26.11;45.64;102038.16;5073103;28;20676;-60
2021/08/14 07:25:52;;;;;;;10.03;7.20;;;;;;;26.57;44.90;102092.75;5089444;28;20269;-60
2021/08/14 07:28:19;;;;;;;11.07;6.70;;;;;;;26.82;44.89;102111.75;5093122;28;20211;-60
2021/08/14 07:30:48;;;;;;;13.10;7.13;;;;;;;26.83;44.63;102111.25;5092295;28;20175;-60
2021/08/14 07:33:15;;;;;;;11.63;6.60;;;;;;;26.57;44.77;102073.59;5081174;28;20175;-60
2021/08/14 07:35:41;;;;;;;9.87;6.93;;;;;;;26.53;44.14;102056.00;5081400;28;20198;-60
2021/08/14 07:38:06;;;;;;;12.40;6.83;;;;;;;26.80;44.77;102120.78;5083011;28;20191;-60
2021/08/14 07:40:32;;;;;;;11.17;7.10;;;;;;;26.72;44.93;102107.56;5083437;28;20196;-60
2021/08/14 07:43:01;;;;;;;11.73;6.90;;;;;;;27.10;44.50;102119.09;5077315;28;20233;-60
2021/08/14 07:45:26;;;;;;;10.60;6.57;;;;;;;27.16;44.86;102117.06;5085685;28;20179;-60
2021/08/14 07:47:52;;;;;;;11.33;6.73;;;;;;;26.74;44.88;102053.78;5076956;28;20599;-60
2021/08/14 07:50:20;;;;;;;10.03;6.70;;;;;;;27.22;43.82;102117.88;5090629;28;20183;-60
2021/08/14 07:52:45;;;;;;;11.80;6.43;;;;;;;26.95;44.31;102052.31;5077970;28;20249;-60
2021/08/14 07:55:12;;;;;;;9.20;6.67;;;;;;;27.34;43.42;102119.44;5082552;28;20610;-60
2021/08/14 07:57:39;;;;;;;10.77;6.57;;;;;;;27.14;42.67;102082.66;5079006;28;20175;-60
2021/08/14 08:00:06;;;;;;;11.40;6.57;;;;;;;27.32;42.83;102118.41;5069479;28;20272;-60
2021/08/14 08:02:31;;;;;;;9.57;6.63;;;;;;;27.46;43.36;102114.56;5079484;28;20724;-60
2021/08/14 08:04:57;;;;;;;15.38;6.80;;;;;;;27.22;43.27;102045.97;5080177;28;20207;-60
2021/08/14 08:07:22;;;;;;;10.98;6.50;;;;;;;27.29;42.61;102054.78;5075761;28;20244;-60
2021/08/14 08:09:48;;;;;;;9.63;6.13;;;;;;;27.75;41.28;102117.72;5081936;28;20190;-60
2021/08/14 08:12:13;;;;;;;8.50;6.33;;;;;;;27.70;41.59;102112.81;5080347;28;20189;-60
2021/08/14 08:14:38;;;;;;;9.02;6.70;;;;;;;27.65;41.25;102084.31;5086593;28;20198;-60
2021/08/14 08:17:04;;;;;;;10.83;6.60;;;;;;;27.44;41.24;102057.38;5076143;28;20657;-60
2021/08/14 08:19:29;;;;;;;11.60;6.67;;;;;;;27.82;41.26;102108.72;5082433;28;20182;-60
2021/08/14 08:21:55;;;;;;;10.07;6.80;;;;;;;28.00;41.43;102101.72;5084365;28;20692;-60
2021/08/14 08:24:20;;;;;;;8.40;6.25;;;;;;;28.27;40.95;102104.53;5074896;28;20676;-60
2021/08/14 08:26:46;;;;;;;9.95;6.05;;;;;;;27.77;40.31;102026.84;5082362;28;20226;-60
2021/08/14 08:29:11;;;;;;;13.32;6.65;;;;;;;28.26;40.18;102105.81;5075455;28;20251;-60
2021/08/14 08:31:37;;;;;;;12.15;6.35;;;;;;;28.32;39.66;102102.97;5085175;28;20179;-60
2021/08/14 08:34:02;;;;;;;9.13;6.65;;;;;;;28.42;40.05;102096.53;5084249;28;20232;-60
2021/08/14 08:36:28;;;;;;;13.00;6.70;;;;;;;28.72;40.00;102113.81;5073821;28;20182;-60
2021/08/14 08:39:06;;;;;;;10.38;6.22;;;;;;;28.91;39.26;102091.94;5082103;28;20206;-60
2021/08/14 08:41:32;;;;;;;10.77;6.32;;;;;;;29.10;38.72;102090.06;5027739;28;20232;-60
2021/08/14 08:43:58;;;;;;;7.72;6.05;;;;;;;29.31;39.09;102099.78;5030105;28;20229;-60
2021/08/14 08:46:26;;;;;;;14.00;6.22;;;;;;;29.48;38.61;102086.22;5030527;28;20661;-60
2021/08/14 08:48:53;;;;;;;10.93;5.97;;;;;;;29.63;38.52;102081.69;5026502;28;20272;-60
2021/08/14 08:51:24;;;;;;;10.23;6.40;;;;;;;29.47;37.79;102025.44;5026512;28;20255;-60
2021/08/14 08:53:50;;;;;;;10.20;6.68;;;;;;;29.72;37.09;102044.22;5032129;28;20242;-60
2021/08/14 08:56:16;;;;;;;12.80;6.47;;;;;;;30.04;37.60;102076.66;5029069;28;20212;-60
2021/08/14 08:58:41;;;;;;;10.20;6.30;;;;;;;29.95;37.52;102068.44;5042381;28;20342;-60
2021/08/14 09:01:07;;;;;;;10.23;6.10;;;;;;;29.93;37.33;102067.41;5030286;28;20189;-60
2021/08/14 09:03:32;;;;;;;10.02;6.20;;;;;;;29.91;37.66;102073.69;5031025;28;20232;-60
2021/08/14 09:05:58;;;;;;;15.85;6.00;;;;;;;30.09;37.55;102070.13;5030349;28;20216;-60
2021/08/14 09:08:24;;;;;;;9.73;5.82;;;;;;;30.30;37.05;102073.34;5029216;28;20201;-60
2021/08/14 09:11:04;;;;;;;7.50;5.75;;;;;;;30.50;36.59;102064.28;5046804;28;20596;-60
2021/08/14 09:13:30;;;;;;;6.72;5.60;;;;;;;30.44;36.23;102034.94;5051320;28;20193;-60
2021/08/14 09:15:55;;;;;;;8.85;5.68;;;;;;;30.55;35.04;102060.56;5041421;28;20251;-60
2021/08/14 09:18:21;;;;;;;11.18;5.55;;;;;;;30.24;35.21;102015.44;5030146;28;20207;-60
2021/08/14 09:20:54;;;;;;;12.93;6.10;;;;;;;29.86;35.61;101977.34;5027182;28;20192;-60
2021/08/14 09:23:21;;;;;;;8.05;6.32;;;;;;;30.37;35.39;102052.72;5030696;28;20205;-60
2021/08/14 09:25:48;;;;;;;12.18;5.93;;;;;;;30.35;35.40;102052.47;5030983;28;20181;-60
2021/08/14 09:28:27;;;;;;;9.13;5.45;;;;;;;30.49;35.54;102049.19;5025659;28;20194;-60
2021/08/14 09:30:55;;;;;;;8.85;4.95;;;;;;;30.29;34.72;102048.91;5010991;28;20170;-60
2021/08/14 09:33:29;;;;;;;6.43;5.13;;;;;;;30.27;35.65;102040.06;5011110;28;20178;-60
2021/08/14 09:36:08;;;;;;;9.55;5.57;;;;;;;30.32;35.54;102045.75;5011457;28;20243;-60
2021/08/14 09:38:44;;;;;;;11.75;5.68;;;;;;;30.28;35.32;102035.91;5010964;28;20181;-60
2021/08/14 09:41:15;;;;;;;8.07;5.30;;;;;;;30.51;35.17;102037.97;5030020;28;20181;-60
2021/08/14 09:43:42;;;;;;;8.82;5.10;;;;;;;30.61;34.82;102039.16;5030664;28;20227;-60
2021/08/14 09:46:08;;;;;;;7.20;4.85;;;;;;;30.23;34.26;101985.25;5030849;28;20177;-60
2021/08/14 09:48:34;;;;;;;8.15;4.90;;;;;;;30.50;34.40;102030.72;5030573;28;20181;-60
2021/08/14 09:50:59;;;;;;;7.28;4.85;;;;;;;30.65;34.70;102033.91;5030496;28;20642;-60
2021/08/14 09:53:28;;;;;;;7.90;4.93;;;;;;;30.84;34.16;102022.50;5030638;28;20237;-60
2021/08/14 09:56:10;;;;;;;8.15;4.82;;;;;;;31.05;34.16;102023.50;5030681;28;20184;-60
2021/08/14 09:58:37;;;;;;;7.80;4.55;;;;;;;30.94;34.06;101986.44;5029428;28;20192;-60
2021/08/14 10:01:05;;;;;;;6.88;4.63;;;;;;;31.22;33.97;102012.63;5030654;28;20534;-60
2021/08/14 10:03:32;;;;;;;6.60;4.90;;;;;;;31.14;33.93;102009.59;5030626;28;20266;-60
2021/08/14 10:05:59;;;;;;;10.77;4.70;;;;;;;31.25;34.44;101997.97;5030766;28;20173;-60
2021/08/14 10:08:28;;;;;;;6.72;4.30;;;;;;;31.31;33.88;102001.53;5030644;28;20195;-60
2021/08/14 10:10:55;;;;;;;10.60;4.65;;;;;;;31.35;33.78;101958.22;5030733;28;20173;-60
2021/08/14 10:13:21;;;;;;;8.85;4.35;;;;;;;31.63;33.37;101985.09;5030573;28;20181;-60
2021/08/14 10:15:46;;;;;;;8.30;5.10;;;;;;;31.51;32.44;101954.31;5029363;28;20207;-60
2021/08/14 10:18:15;;;;;;;8.05;4.97;;;;;;;31.88;32.74;101983.63;5030179;28;20181;-60
2021/08/14 10:20:40;;;;;;;8.75;4.90;;;;;;;31.91;32.26;101990.34;5030462;28;20625;-60
2021/08/14 10:23:10;;;;;;;5.68;4.60;;;;;;;32.20;32.59;101977.81;5030524;28;20204;-60
2021/08/14 10:25:39;;;;;;;5.68;4.55;;;;;;;32.49;31.39;101976.69;5030808;28;20177;-60
2021/08/14 10:28:07;;;;;;;6.97;4.22;;;;;;;32.20;30.54;101915.47;5030737;28;20181;-60
2021/08/14 10:30:50;;;;;;;12.55;4.43;;;;;;;32.44;30.81;101966.09;5030729;28;20609;-60
2021/08/14 10:33:27;;;;;;;7.30;3.90;;;;;;;32.69;30.83;101968.16;5030502;28;20272;-60
2021/08/14 10:36:21;;;;;;;7.88;4.10;;;;;;;33.03;30.10;101968.97;5030676;28;20183;-60
2021/08/14 10:38:50;;;;;;;8.05;4.05;;;;;;;33.13;29.87;101946.28;5030359;28;20663;-60
2021/08/14 10:41:17;;;;;;;6.65;3.92;;;;;;;33.51;29.90;101964.66;5030565;28;20181;-60
2021/08/14 10:43:55;;;;;;;5.35;4.15;;;;;;;33.66;29.51;101954.09;5030310;28;20237;-61
2021/08/14 10:46:49;;;;;;;5.10;3.90;;;;;;;33.67;28.50;101952.00;5030655;28;20181;-60
2021/08/14 10:49:38;;;;;;;5.68;4.10;;;;;;;33.81;29.05;101947.69;5030559;28;20248;-61
2021/08/14 10:52:04;;;;;;;6.68;4.00;;;;;;;34.08;29.01;101938.28;5031691;28;20193;-60
2021/08/14 10:54:38;;;;;;;5.78;3.38;;;;;;;34.23;27.54;101929.75;5034080;28;20181;-61
2021/08/14 10:57:08;;;;;;;6.97;4.25;;;;;;;34.45;27.54;101931.97;5034018;28;20604;-61
2021/08/14 10:59:40;;;;;;;5.18;4.07;;;;;;;34.71;28.19;101933.81;5034027;28;20185;-60
2021/08/14 11:02:08;;;;;;;6.22;3.75;;;;;;;34.55;27.48;101921.47;5033904;28;20185;-60
2021/08/14 11:04:41;;;;;;;10.98;3.78;;;;;;;33.88;27.02;101849.22;5033635;28;20212;-60
2021/08/14 11:07:31;;;;;;;6.05;3.50;;;;;;;34.44;27.36;101916.06;5033728;28;20185;-60
2021/08/14 11:09:57;;;;;;;4.65;3.53;;;;;;;34.37;26.90;101916.03;5033080;28;20653;-60
2021/08/14 11:12:40;;;;;;;6.32;3.67;;;;;;;34.54;26.78;101916.31;5033688;28;20187;-60
2021/08/14 11:15:25;;;;;;;4.90;3.30;;;;;;;34.49;26.36;101912.25;5033414;28;20245;-60
2021/08/14 11:17:53;;;;;;;4.85;2.92;;;;;;;34.46;27.05;101909.75;5033437;28;20161;-61